Terminal Aerodrome Forecast
Issued by NWS Green Bay, WI

Home | Current Version | Previous Version | Text Only | Print | Product List | Glossary Off
Versions: 1 2 3 4 5 6 7 8 9 10 11 12 13 14 15

000
FTUS43 KGRB 292322
TAFGRB
TAF
KGRB 292322Z 3000/3024 07006KT P6SM FEW060
     FM300900 04008KT P6SM SCT040
     FM301500 05010G16KT P6SM SCT040 BKN200
     FM302100 04015G20KT P6SM SCT020 BKN035=

USA.gov is the U.S. government's official web portal to all federal, state and local government web resources and services.